Time;durP1;ratioP1;P1;durP2;ratioP2;P2;SDS_P1;SDS_P2;PMS_P1;PMS_P2;Temp;Humidity;BMP_temperature;BMP_pressure;BME280_temperature;BME280_humidity;BME280_pressure;Samples;Min_cycle;Max_cycle;Signal;HPM_P1;HPM_P2
2021/07/21 00:01:36;;;;;;;18.80;8.80;;;16.20;99.90;;;;;;5089509;28;20386;-59
2021/07/21 00:04:03;;;;;;;19.13;9.73;;;16.20;99.90;;;;;;5089315;28;20378;-56
2021/07/21 00:06:29;;;;;;;22.67;9.20;;;16.20;99.90;;;;;;5089402;28;20397;-60
2021/07/21 00:08:55;;;;;;;19.92;9.20;;;16.10;99.90;;;;;;5088904;28;20377;-59
2021/07/21 00:14:14;;;;;;;19.08;9.50;;;16.10;99.90;;;;;;5088473;28;20385;-59
2021/07/21 00:16:43;;;;;;;16.60;8.57;;;16.10;99.90;;;;;;5086923;28;20387;-58
2021/07/21 00:21:53;;;;;;;16.33;8.63;;;16.00;99.90;;;;;;5083608;28;20530;-59
2021/07/21 00:24:18;;;;;;;19.30;9.70;;;16.10;99.90;;;;;;5082755;28;20477;-59
2021/07/21 00:26:44;;;;;;;16.77;8.60;;;16.10;99.90;;;;;;5088142;28;20432;-60
2021/07/21 00:29:11;;;;;;;16.73;8.68;;;16.00;99.90;;;;;;5086602;28;20443;-60
2021/07/21 00:31:37;;;;;;;16.83;8.95;;;16.00;99.90;;;;;;5087613;28;20378;-60
2021/07/21 00:34:03;;;;;;;16.05;8.60;;;15.90;99.90;;;;;;5086013;28;20401;-56
2021/07/21 00:36:29;;;;;;;17.38;8.70;;;15.80;99.90;;;;;;5087710;28;20386;-59
2021/07/21 00:38:54;;;;;;;15.70;8.73;;;15.80;99.90;;;;;;5087751;28;20394;-58
2021/07/21 00:41:20;;;;;;;21.60;9.40;;;15.70;99.90;;;;;;5087693;28;20374;-59
2021/07/21 00:43:46;;;;;;;17.92;9.10;;;15.70;99.90;;;;;;5089563;28;20378;-59
2021/07/21 00:46:12;;;;;;;19.00;9.00;;;15.70;99.90;;;;;;5088596;28;20402;-59
2021/07/21 00:48:37;;;;;;;18.77;8.82;;;15.70;99.90;;;;;;5089052;28;20382;-59
2021/07/21 00:51:03;;;;;;;16.70;8.43;;;15.70;99.90;;;;;;5084678;28;20397;-56
2021/07/21 00:53:29;;;;;;;15.47;8.53;;;15.70;99.90;;;;;;5078282;28;20453;-60
2021/07/21 00:55:55;;;;;;;17.30;9.30;;;15.80;99.90;;;;;;5072594;28;20458;-59
2021/07/21 00:58:22;;;;;;;14.65;8.30;;;15.80;99.90;;;;;;5071256;28;20459;-59
2021/07/21 01:00:47;;;;;;;19.23;9.00;;;15.70;99.90;;;;;;5074590;28;20509;-59
2021/07/21 01:03:13;;;;;;;16.73;8.90;;;15.60;99.90;;;;;;5080459;28;20917;-59
2021/07/21 01:05:43;;;;;;;17.03;8.93;;;15.60;99.90;;;;;;5071994;28;20485;-59
2021/07/21 01:08:11;;;;;;;18.52;9.05;;;15.40;99.90;;;;;;5071412;28;20640;-59
2021/07/21 01:10:38;;;;;;;16.83;8.98;;;15.40;99.90;;;;;;5071671;28;20418;-59
2021/07/21 01:13:21;;;;;;;17.95;9.10;;;15.40;99.90;;;;;;5071431;28;20407;-58
2021/07/21 01:16:23;;;;;;;18.08;9.00;;;15.30;99.90;;;;;;5072190;28;20376;-59
2021/07/21 01:19:08;;;;;;;16.65;9.20;;;15.20;99.90;;;;;;5062682;28;20392;-59
2021/07/21 01:21:55;;;;;;;15.20;8.40;;;15.20;99.90;;;;;;5071988;28;20392;-58
2021/07/21 01:24:25;;;;;;;17.25;8.98;;;15.20;99.90;;;;;;5071167;28;20472;-59
2021/07/21 01:27:18;;;;;;;16.67;9.13;;;15.10;99.90;;;;;;5071925;28;20441;-59
2021/07/21 01:29:48;;;;;;;17.07;9.10;;;15.10;99.90;;;;;;5071986;28;20392;-59
2021/07/21 01:32:16;;;;;;;19.75;9.07;;;15.10;99.90;;;;;;5071179;28;20408;-59
2021/07/21 01:34:43;;;;;;;19.58;9.45;;;15.10;99.90;;;;;;5071494;28;20383;-59
2021/07/21 01:37:09;;;;;;;15.35;8.98;;;15.10;99.90;;;;;;5069448;28;20764;-59
2021/07/21 01:39:44;;;;;;;17.42;9.18;;;15.10;99.90;;;;;;5070100;28;20403;-59
2021/07/21 01:42:15;;;;;;;17.88;9.32;;;15.10;99.90;;;;;;5070471;28;20386;-59
2021/07/21 01:44:43;;;;;;;15.50;8.98;;;15.10;99.90;;;;;;5071555;28;20375;-59
2021/07/21 01:47:11;;;;;;;18.40;10.23;;;15.10;99.90;;;;;;5070624;28;20387;-58
2021/07/21 01:49:39;;;;;;;17.08;9.48;;;15.20;99.90;;;;;;5071757;28;20391;-59
2021/07/21 01:52:10;;;;;;;21.67;9.82;;;15.20;99.90;;;;;;5070201;28;20410;-59
2021/07/21 01:54:36;;;;;;;19.48;10.30;;;15.20;99.90;;;;;;5070587;28;20388;-59
2021/07/21 01:57:02;;;;;;;19.30;10.25;;;15.20;99.90;;;;;;5071211;28;20372;-56
2021/07/21 01:59:30;;;;;;;18.20;9.70;;;15.00;99.90;;;;;;5070728;28;20498;-59
2021/07/21 02:02:00;;;;;;;17.15;9.80;;;15.10;99.90;;;;;;5071044;28;20472;-59
2021/07/21 02:04:26;;;;;;;18.75;9.90;;;15.10;99.90;;;;;;5070580;28;20516;-60
2021/07/21 02:06:53;;;;;;;17.65;9.60;;;15.00;99.90;;;;;;5069747;28;20462;-59
2021/07/21 02:09:19;;;;;;;19.90;10.30;;;14.90;99.90;;;;;;5069746;28;20416;-59
2021/07/21 02:11:46;;;;;;;17.45;9.55;;;14.90;99.90;;;;;;5071079;28;20409;-60
2021/07/21 02:14:14;;;;;;;17.75;10.18;;;14.80;99.90;;;;;;5069674;28;20820;-59
2021/07/21 02:16:43;;;;;;;19.10;9.77;;;14.80;99.90;;;;;;5072713;28;20432;-59
2021/07/21 02:19:09;;;;;;;20.35;10.13;;;14.80;99.90;;;;;;5080765;28;20390;-59
2021/07/21 02:21:41;;;;;;;17.75;9.90;;;14.70;99.90;;;;;;5070417;28;20388;-59
2021/07/21 02:24:07;;;;;;;19.77;9.90;;;14.60;99.90;;;;;;5070024;28;20380;-59
2021/07/21 02:26:38;;;;;;;18.50;10.83;;;14.60;99.90;;;;;;5070405;28;20782;-59
2021/07/21 02:29:05;;;;;;;19.02;10.23;;;14.60;99.90;;;;;;5070198;28;20368;-56
2021/07/21 02:31:38;;;;;;;17.58;9.68;;;14.60;99.90;;;;;;5069067;28;20935;-58
2021/07/21 02:34:06;;;;;;;18.23;9.23;;;14.50;99.90;;;;;;5069983;28;20392;-56
2021/07/21 02:36:32;;;;;;;19.05;10.00;;;14.50;99.90;;;;;;5070195;28;20399;-60
2021/07/21 02:38:59;;;;;;;17.98;10.48;;;14.50;99.90;;;;;;5070192;28;20376;-60
2021/07/21 02:41:26;;;;;;;18.95;9.75;;;14.40;99.90;;;;;;5069427;28;20557;-60
2021/07/21 02:43:51;;;;;;;18.20;10.02;;;14.30;99.90;;;;;;5070251;28;20378;-59
2021/07/21 02:46:17;;;;;;;18.23;9.60;;;14.20;99.90;;;;;;5069235;28;20458;-57
2021/07/21 02:48:45;;;;;;;22.30;10.27;;;14.20;99.90;;;;;;5069815;28;20383;-59
2021/07/21 02:51:47;;;;;;;22.38;10.80;;;14.10;99.90;;;;;;5069299;28;20380;-59
2021/07/21 02:54:48;;;;;;;17.00;9.43;;;14.10;99.90;;;;;;5059298;28;20498;-57
2021/07/21 02:57:23;;;;;;;18.25;9.10;;;14.10;99.90;;;;;;5069103;28;20487;-57
2021/07/21 02:59:51;;;;;;;18.10;9.20;;;14.10;99.90;;;;;;5069823;28;20426;-60
2021/07/21 03:02:22;;;;;;;19.25;10.02;;;14.00;99.90;;;;;;5068827;28;20387;-58
2021/07/21 03:04:49;;;;;;;18.80;9.98;;;14.00;99.90;;;;;;5069083;28;20442;-58
2021/07/21 03:07:17;;;;;;;20.65;9.57;;;14.00;99.90;;;;;;5071925;28;20390;-58
2021/07/21 03:09:43;;;;;;;18.60;10.00;;;14.00;99.90;;;;;;5088257;28;20941;-58
2021/07/21 03:12:11;;;;;;;17.95;9.10;;;14.00;99.90;;;;;;5089005;28;20462;-58
2021/07/21 03:14:40;;;;;;;19.50;9.45;;;14.00;99.90;;;;;;5089783;28;20417;-59
2021/07/21 03:17:07;;;;;;;17.60;9.48;;;14.00;99.90;;;;;;5088943;28;20386;-55
2021/07/21 03:19:34;;;;;;;18.45;9.45;;;14.00;99.90;;;;;;5086512;28;20429;-59
2021/07/21 03:22:02;;;;;;;17.42;9.60;;;14.00;99.90;;;;;;5089405;28;20414;-58
2021/07/21 03:24:29;;;;;;;21.08;9.73;;;14.00;99.90;;;;;;5087522;28;20389;-59
2021/07/21 03:26:56;;;;;;;20.52;10.10;;;14.00;99.90;;;;;;5091720;28;20392;-59
2021/07/21 03:29:22;;;;;;;18.57;9.93;;;13.90;99.90;;;;;;5093000;28;21000;-58
2021/07/21 03:31:49;;;;;;;16.60;8.90;;;14.00;99.90;;;;;;5090139;28;20443;-59
2021/07/21 03:34:17;;;;;;;17.33;9.55;;;14.00;99.90;;;;;;5104405;28;20850;-58
2021/07/21 03:36:47;;;;;;;18.33;8.93;;;13.90;99.90;;;;;;5083690;28;20400;-58
2021/07/21 03:39:14;;;;;;;19.27;9.60;;;13.90;99.90;;;;;;5095735;28;20377;-58
2021/07/21 03:41:40;;;;;;;18.17;9.15;;;13.90;99.90;;;;;;5102804;28;20861;-58
2021/07/21 03:44:10;;;;;;;16.17;9.45;;;13.90;99.90;;;;;;5093278;28;20378;-55
2021/07/21 03:46:40;;;;;;;17.83;9.77;;;13.80;99.90;;;;;;5105626;28;20383;-59
2021/07/21 03:49:08;;;;;;;16.77;9.50;;;13.80;99.90;;;;;;5093836;28;20471;-55
2021/07/21 03:51:36;;;;;;;18.00;9.40;;;13.70;99.90;;;;;;5092115;28;20382;-57
2021/07/21 03:54:05;;;;;;;18.92;10.35;;;13.70;99.90;;;;;;5089384;28;20432;-58
2021/07/21 03:56:31;;;;;;;17.60;9.37;;;13.70;99.90;;;;;;5094850;28;20452;-57
2021/07/21 03:58:57;;;;;;;19.77;9.52;;;13.70;99.90;;;;;;5101321;28;20384;-58
2021/07/21 04:01:23;;;;;;;18.75;9.30;;;12.60;99.90;;;;;;5101642;28;20428;-57
2021/07/21 04:03:50;;;;;;;16.30;9.32;;;13.80;99.90;;;;;;5075354;28;20864;-58
2021/07/21 04:06:18;;;;;;;19.48;9.45;;;13.80;99.90;;;;;;5100201;28;20399;-58
2021/07/21 04:08:45;;;;;;;16.42;9.00;;;13.90;99.90;;;;;;5088542;28;20405;-58
2021/07/21 04:11:14;;;;;;;17.85;9.07;;;14.00;99.90;;;;;;5102549;28;20428;-58
2021/07/21 04:13:42;;;;;;;17.70;9.07;;;14.10;99.90;;;;;;5092389;28;20386;-58
2021/07/21 04:16:08;;;;;;;15.47;8.60;;;14.10;99.90;;;;;;5104822;28;20376;-57
2021/07/21 04:18:38;;;;;;;18.65;9.23;;;14.10;99.90;;;;;;5100831;28;20880;-58
2021/07/21 04:21:06;;;;;;;18.93;9.60;;;14.00;99.90;;;;;;5099100;28;20539;-54
2021/07/21 04:23:32;;;;;;;20.23;10.20;;;14.00;99.90;;;;;;5094245;28;20447;-58
2021/07/21 04:25:59;;;;;;;18.55;9.50;;;14.10;99.90;;;;;;5100780;28;20379;-57
2021/07/21 04:28:25;;;;;;;18.17;9.57;;;14.20;99.90;;;;;;5092312;28;20444;-57
2021/07/21 04:30:55;;;;;;;17.53;9.60;;;14.30;99.90;;;;;;5092244;28;20806;-58
2021/07/21 04:33:22;;;;;;;17.85;9.48;;;14.40;99.90;;;;;;5094120;28;20377;-58
2021/07/21 04:35:48;;;;;;;17.58;9.25;;;14.60;99.90;;;;;;5092238;28;20394;-58
2021/07/21 04:38:15;;;;;;;15.90;8.85;;;14.60;99.90;;;;;;5108335;28;20417;-58
2021/07/21 04:40:44;;;;;;;17.40;9.65;;;14.70;99.90;;;;;;5100532;28;20415;-59
2021/07/21 04:43:11;;;;;;;18.77;9.75;;;14.80;99.90;;;;;;5100581;28;20440;-57
2021/07/21 04:45:46;;;;;;;18.48;9.20;;;14.90;99.90;;;;;;5108361;28;20714;-62
2021/07/21 04:48:15;;;;;;;14.60;8.10;;;15.00;99.90;;;;;;5079227;28;20390;-60
2021/07/21 04:50:43;;;;;;;18.70;9.55;;;15.00;99.90;;;;;;5105421;28;20390;-63
2021/07/21 04:53:14;;;;;;;16.70;9.00;;;15.10;99.90;;;;;;5103498;28;20439;-63
2021/07/21 04:55:46;;;;;;;17.95;9.00;;;15.20;99.90;;;;;;5095864;28;20447;-64
2021/07/21 04:58:12;;;;;;;17.65;9.15;;;15.40;99.90;;;;;;5077666;28;20419;-63
2021/07/21 05:00:38;;;;;;;14.97;8.90;;;15.60;99.90;;;;;;5105335;28;20413;-64
2021/07/21 05:03:06;;;;;;;17.95;9.07;;;15.90;99.90;;;;;;5102829;28;20877;-60
2021/07/21 05:05:38;;;;;;;17.92;9.35;;;16.50;99.90;;;;;;5096082;28;20455;-63
2021/07/21 05:08:04;;;;;;;15.32;8.20;;;17.90;99.90;;;;;;5106805;28;20388;-59
2021/07/21 05:10:31;;;;;;;16.83;9.00;;;19.40;99.90;;;;;;5091568;28;20405;-65
2021/07/21 05:13:00;;;;;;;13.80;8.10;;;20.50;99.90;;;;;;5092715;28;20382;-64
2021/07/21 05:15:25;;;;;;;13.80;7.53;;;21.40;99.90;;;;;;5093037;28;20473;-64
2021/07/21 05:17:51;;;;;;;16.27;8.73;;;22.40;99.90;;;;;;5108806;28;20695;-64
2021/07/21 05:20:17;;;;;;;14.18;7.82;;;23.40;99.90;;;;;;5095340;28;20404;-64
2021/07/21 05:22:46;;;;;;;15.15;8.15;;;23.90;99.90;;;;;;5104301;28;20791;-65
2021/07/21 05:25:13;;;;;;;15.40;8.02;;;24.50;99.90;;;;;;5091010;28;20435;-63
2021/07/21 05:27:38;;;;;;;15.35;7.93;;;24.40;99.90;;;;;;5092807;28;20928;-66
2021/07/21 05:30:05;;;;;;;14.13;7.75;;;24.50;99.90;;;;;;5104979;28;20608;-60
2021/07/21 05:32:31;;;;;;;13.10;8.45;;;24.40;99.90;;;;;;5107339;28;20408;-65
2021/07/21 05:34:57;;;;;;;13.70;8.13;;;24.80;99.90;;;;;;5075699;28;20396;-65
2021/07/21 05:37:22;;;;;;;14.50;8.75;;;25.30;99.90;;;;;;5089228;28;20395;-65
2021/07/21 05:39:48;;;;;;;13.07;7.40;;;25.40;98.70;;;;;;5102389;28;20501;-65
2021/07/21 05:42:14;;;;;;;16.00;8.27;;;25.60;97.90;;;;;;5107524;28;20419;-65
2021/07/21 05:44:39;;;;;;;13.50;8.20;;;25.50;98.40;;;;;;5098458;28;20380;-64
2021/07/21 05:47:05;;;;;;;15.03;8.17;;;25.60;97.70;;;;;;5108072;28;20380;-61
2021/07/21 05:49:31;;;;;;;13.90;10.40;;;25.80;97.90;;;;;;5088601;28;20382;-61
2021/07/21 05:51:56;;;;;;;14.73;10.07;;;26.80;95.80;;;;;;5079049;28;20410;-65
2021/07/21 05:54:22;;;;;;;15.50;10.87;;;26.80;94.50;;;;;;5088103;28;20385;-65
2021/07/21 05:56:48;;;;;;;15.45;11.32;;;26.30;95.30;;;;;;5091624;28;20436;-65
2021/07/21 05:59:14;;;;;;;13.27;10.65;;;26.80;94.30;;;;;;5086369;28;20392;-65
2021/07/21 06:01:39;;;;;;;13.48;10.60;;;27.10;93.60;;;;;;5096172;28;20954;-64
2021/07/21 06:04:05;;;;;;;13.93;10.00;;;27.40;92.40;;;;;;5106942;28;20373;-61
2021/07/21 06:06:31;;;;;;;12.73;9.37;;;27.70;92.40;;;;;;5092222;28;20812;-64
2021/07/21 06:08:57;;;;;;;13.15;9.10;;;28.30;90.90;;;;;;5104051;28;20380;-65
2021/07/21 06:11:23;;;;;;;12.07;7.78;;;28.70;89.70;;;;;;5094823;28;20852;-67
2021/07/21 06:13:49;;;;;;;15.27;8.20;;;28.80;86.10;;;;;;5084990;28;20773;-64
2021/07/21 06:16:15;;;;;;;14.40;8.83;;;28.80;86.90;;;;;;5082989;28;20498;-57
2021/07/21 06:18:44;;;;;;;13.27;9.05;;;30.10;81.50;;;;;;5084200;28;20743;-57
2021/07/21 06:21:10;;;;;;;12.50;7.32;;;29.80;80.10;;;;;;5084732;28;20406;-60
2021/07/21 06:23:36;;;;;;;12.60;7.88;;;29.20;82.50;;;;;;5090281;28;20977;-60
2021/07/21 06:26:02;;;;;;;12.60;7.80;;;29.30;79.50;;;;;;5078808;28;20907;-60
2021/07/21 06:28:27;;;;;;;12.77;7.85;;;29.20;80.90;;;;;;5078131;28;20390;-60
2021/07/21 06:30:53;;;;;;;13.23;8.00;;;29.60;79.50;;;;;;5089274;28;20386;-60
2021/07/21 06:33:19;;;;;;;13.15;8.80;;;29.40;78.30;;;;;;5071624;28;20388;-60
2021/07/21 06:35:45;;;;;;;12.85;8.90;;;29.70;77.60;;;;;;5090372;28;20405;-60
2021/07/21 06:38:12;;;;;;;13.98;8.70;;;29.90;76.50;;;;;;5079015;28;20475;-60
2021/07/21 06:40:38;;;;;;;13.30;9.00;;;29.50;76.60;;;;;;5072295;28;20463;-60
2021/07/21 06:43:04;;;;;;;11.52;7.65;;;29.20;78.20;;;;;;5073440;28;20490;-57
2021/07/21 06:45:30;;;;;;;13.57;8.00;;;29.80;76.80;;;;;;5087643;28;20847;-58
2021/07/21 06:47:55;;;;;;;15.23;8.13;;;29.70;77.10;;;;;;5077130;28;20430;-58
2021/07/21 06:50:22;;;;;;;13.47;8.97;;;29.60;76.40;;;;;;5068952;28;20944;-60
2021/07/21 06:52:48;;;;;;;12.77;8.80;;;29.30;75.70;;;;;;5084164;28;20465;-60
2021/07/21 06:55:15;;;;;;;14.60;8.15;;;28.80;77.80;;;;;;5077300;28;20400;-60
2021/07/21 06:57:40;;;;;;;12.80;8.50;;;29.10;77.80;;;;;;5074919;28;20383;-60
2021/07/21 07:00:07;;;;;;;15.27;8.43;;;30.40;74.80;;;;;;5089366;28;20416;-57
2021/07/21 07:02:32;;;;;;;14.77;8.68;;;30.10;71.30;;;;;;5087354;28;20733;-60
2021/07/21 07:04:58;;;;;;;15.38;8.57;;;30.90;70.00;;;;;;5071996;28;20489;-61
2021/07/21 07:07:24;;;;;;;12.70;8.18;;;30.90;69.90;;;;;;5070583;28;21199;-58
2021/07/21 07:09:49;;;;;;;11.50;7.32;;;30.60;70.60;;;;;;5087942;28;20410;-58
2021/07/21 07:12:16;;;;;;;12.90;8.70;;;30.90;69.80;;;;;;5068543;28;20449;-58
2021/07/21 07:14:42;;;;;;;11.40;7.45;;;31.20;69.80;;;;;;5069746;28;20409;-57
2021/07/21 07:17:08;;;;;;;13.75;8.25;;;31.20;70.20;;;;;;5074302;28;20439;-55
2021/07/21 07:19:34;;;;;;;15.52;7.85;;;31.10;70.20;;;;;;5075540;28;20465;-58
2021/07/21 07:22:00;;;;;;;12.33;7.90;;;31.30;69.60;;;;;;5069260;28;20380;-60
2021/07/21 07:24:29;;;;;;;14.57;8.40;;;31.60;67.60;;;;;;5068721;28;20862;-60
2021/07/21 07:26:59;;;;;;;13.40;8.10;;;31.90;65.80;;;;;;5069248;28;20378;-60
2021/07/21 07:29:26;;;;;;;13.80;8.70;;;32.90;62.40;;;;;;5068455;28;20441;-60
2021/07/21 07:31:52;;;;;;;12.45;8.00;;;32.20;63.20;;;;;;5069590;28;20471;-60
2021/07/21 07:34:19;;;;;;;13.60;8.88;;;32.50;62.20;;;;;;5067128;28;20734;-60
2021/07/21 07:36:45;;;;;;;12.35;8.20;;;32.50;61.70;;;;;;5069092;28;20873;-60
2021/07/21 07:39:11;;;;;;;14.23;11.45;;;31.70;62.70;;;;;;5068391;28;20388;-57
2021/07/21 07:41:38;;;;;;;18.52;11.23;;;31.10;64.90;;;;;;5069018;28;20388;-58
2021/07/21 07:44:05;;;;;;;13.57;10.45;;;31.20;64.50;;;;;;5068678;28;20372;-58
2021/07/21 07:46:32;;;;;;;16.33;10.50;;;30.60;66.10;;;;;;5068365;28;20376;-57
2021/07/21 07:48:58;;;;;;;14.60;10.55;;;30.30;66.30;;;;;;5069117;28;20391;-57
2021/07/21 07:51:30;;;;;;;19.13;11.10;;;30.60;65.70;;;;;;5069217;28;20539;-58
2021/07/21 07:53:59;;;;;;;12.80;9.90;;;30.50;66.40;;;;;;5078637;28;20425;-58
2021/07/21 07:56:26;;;;;;;13.57;9.77;;;30.30;67.70;;;;;;5082303;28;20388;-58
2021/07/21 07:58:52;;;;;;;14.88;10.00;;;31.00;66.00;;;;;;5074285;28;20386;-60
2021/07/21 08:01:17;;;;;;;13.50;8.30;;;31.80;63.60;;;;;;5092484;28;20393;-61
2021/07/21 08:03:43;;;;;;;15.15;8.90;;;32.80;61.30;;;;;;5091970;28;20786;-59
2021/07/21 08:06:09;;;;;;;13.40;7.63;;;32.00;62.20;;;;;;5080458;28;20494;-58
2021/07/21 08:08:35;;;;;;;13.18;8.52;;;32.80;60.40;;;;;;5072132;28;20471;-60
2021/07/21 08:11:02;;;;;;;14.63;8.75;;;32.30;59.60;;;;;;5073374;28;20435;-60
2021/07/21 08:13:29;;;;;;;17.13;8.20;;;31.90;60.30;;;;;;5076453;28;20397;-60
2021/07/21 08:15:55;;;;;;;13.27;8.70;;;32.00;61.20;;;;;;5076825;28;20404;-61
2021/07/21 08:18:21;;;;;;;13.55;10.25;;;32.60;59.90;;;;;;5072041;28;20375;-61
2021/07/21 08:20:46;;;;;;;15.43;11.05;;;32.70;59.60;;;;;;5072222;28;20407;-61
2021/07/21 08:23:12;;;;;;;13.75;9.88;;;32.80;59.40;;;;;;5071618;28;20388;-60
2021/07/21 08:25:40;;;;;;;14.20;9.70;;;33.70;57.70;;;;;;5072690;28;20380;-60
2021/07/21 08:28:06;;;;;;;12.73;9.60;;;33.50;58.10;;;;;;5072510;28;20377;-57
2021/07/21 08:30:32;;;;;;;13.88;9.40;;;33.50;57.90;;;;;;5073608;28;20446;-60
2021/07/21 08:32:58;;;;;;;13.52;9.13;;;33.30;57.00;;;;;;5083484;28;20390;-60
2021/07/21 08:35:28;;;;;;;14.38;10.00;;;34.10;56.70;;;;;;5087039;28;20418;-60
2021/07/21 08:37:55;;;;;;;15.60;9.80;;;34.80;55.90;;;;;;5072911;28;20388;-59
2021/07/21 08:40:22;;;;;;;13.18;8.40;;;34.60;55.60;;;;;;5082381;28;20407;-60
2021/07/21 08:42:48;;;;;;;15.50;7.53;;;34.60;55.70;;;;;;5071629;28;20395;-60
2021/07/21 08:45:14;;;;;;;14.90;8.60;;;35.30;54.70;;;;;;5079845;28;20378;-60
2021/07/21 08:47:40;;;;;;;13.85;9.15;;;34.90;54.50;;;;;;5085525;28;20392;-59
2021/07/21 08:50:07;;;;;;;12.70;8.60;;;34.50;55.00;;;;;;5090877;28;20472;-60
2021/07/21 08:52:34;;;;;;;13.48;8.35;;;34.30;53.90;;;;;;5079415;28;20387;-60
2021/07/21 08:55:01;;;;;;;13.47;7.93;;;34.90;54.20;;;;;;5090835;28;20390;-60
2021/07/21 08:57:32;;;;;;;12.57;7.97;;;34.30;53.50;;;;;;5088041;28;20402;-63
2021/07/21 09:00:04;;;;;;;13.52;7.97;;;34.00;54.70;;;;;;5091841;28;20398;-60
2021/07/21 09:02:32;;;;;;;11.98;8.30;;;33.90;55.20;;;;;;5090981;28;20473;-60
2021/07/21 09:04:58;;;;;;;14.13;8.10;;;34.20;55.00;;;;;;5092198;28;20374;-60
2021/07/21 09:07:23;;;;;;;13.00;8.00;;;34.50;54.30;;;;;;5087696;28;20402;-60
2021/07/21 09:09:49;;;;;;;13.13;9.32;;;35.40;52.40;;;;;;5070801;28;20408;-60
2021/07/21 09:12:16;;;;;;;13.82;8.10;;;36.30;50.90;;;;;;5074816;28;20748;-60
2021/07/21 09:14:42;;;;;;;12.52;7.80;;;36.40;51.40;;;;;;5088139;28;20380;-62
2021/07/21 09:17:15;;;;;;;13.25;7.15;;;36.10;50.60;;;;;;5073433;28;20411;-57
2021/07/21 09:19:43;;;;;;;13.75;8.02;;;34.70;52.10;;;;;;5075671;28;20414;-58
2021/07/21 09:22:21;;;;;;;14.50;7.40;;;33.90;53.60;;;;;;5083839;28;20400;-57
2021/07/21 09:25:13;;;;;;;15.48;7.47;;;33.90;54.30;;;;;;5070934;28;20440;-60
2021/07/21 09:27:41;;;;;;;15.27;7.28;;;34.80;51.90;;;;;;5070436;28;20380;-60
2021/07/21 09:30:08;;;;;;;14.95;6.90;;;35.50;51.30;;;;;;5070407;28;20376;-60
2021/07/21 09:33:13;;;;;;;12.13;8.55;;;35.00;50.10;;;;;;5070741;28;20372;-60
2021/07/21 09:35:48;;;;;;;12.90;10.13;;;35.30;50.90;;;;;;5008776;28;20413;-61
2021/07/21 09:38:19;;;;;;;16.50;12.95;;;35.70;49.60;;;;;;5007963;28;20914;-60
2021/07/21 09:40:53;;;;;;;11.40;9.33;;;37.00;48.00;;;;;;5044210;28;20507;-61
2021/07/21 09:43:22;;;;;;;14.00;8.23;;;37.00;47.30;;;;;;5068660;28;20391;-60
2021/07/21 09:45:48;;;;;;;13.85;8.90;;;35.60;48.00;;;;;;5071772;28;20380;-59
2021/07/21 09:48:18;;;;;;;13.10;9.03;;;35.20;48.50;;;;;;5088247;28;20390;-60
2021/07/21 09:50:46;;;;;;;13.10;9.70;;;34.70;49.30;;;;;;5084804;28;20395;-60
2021/07/21 09:53:14;;;;;;;14.40;9.70;;;34.00;49.30;;;;;;5090671;28;20409;-57
2021/07/21 09:55:46;;;;;;;22.05;10.40;;;35.00;49.70;;;;;;5084051;28;20994;-59
2021/07/21 09:58:18;;;;;;;11.45;7.85;;;34.80;49.60;;;;;;5090027;28;20462;-58
2021/07/21 10:00:47;;;;;;;14.00;9.32;;;35.40;49.00;;;;;;5092400;28;20409;-61
2021/07/21 10:03:16;;;;;;;10.10;8.02;;;35.60;49.00;;;;;;5105171;28;20890;-57
2021/07/21 10:05:57;;;;;;;13.20;8.52;;;35.00;48.90;;;;;;5110286;28;20858;-61
2021/07/21 10:08:27;;;;;;;15.93;9.48;;;35.40;48.20;;;;;;5110246;28;20449;-61
2021/07/21 10:10:54;;;;;;;11.65;8.40;;;35.40;48.10;;;;;;5110441;28;20451;-61
2021/07/21 10:13:19;;;;;;;14.18;8.20;;;36.10;47.60;;;;;;5110269;28;20388;-60
2021/07/21 10:15:46;;;;;;;12.10;8.40;;;36.20;46.90;;;;;;5108179;28;20383;-61
2021/07/21 10:18:13;;;;;;;14.48;8.90;;;35.60;48.10;;;;;;5109245;28;20746;-58
2021/07/21 10:20:41;;;;;;;12.30;8.35;;;35.30;47.80;;;;;;5102025;28;20484;-61
2021/07/21 10:23:07;;;;;;;13.85;8.02;;;35.40;47.10;;;;;;5089183;28;20394;-60
2021/07/21 10:25:37;;;;;;;11.55;7.75;;;35.00;48.10;;;;;;5085068;28;20490;-61
2021/07/21 10:28:04;;;;;;;13.40;8.60;;;35.10;47.70;;;;;;5089981;28;20398;-62
2021/07/21 10:30:31;;;;;;;11.20;7.82;;;34.80;48.00;;;;;;5087243;28;20671;-60
2021/07/21 10:32:58;;;;;;;11.07;7.97;;;34.80;47.90;;;;;;5088697;28;20393;-60
2021/07/21 10:35:25;;;;;;;12.45;7.72;;;34.30;49.00;;;;;;5087914;28;20408;-61
2021/07/21 10:37:52;;;;;;;13.25;8.30;;;33.90;49.70;;;;;;5091037;28;20409;-61
2021/07/21 10:40:22;;;;;;;13.93;7.70;;;33.90;50.00;;;;;;5091424;28;20435;-61
2021/07/21 10:42:53;;;;;;;11.82;8.88;;;33.30;50.00;;;;;;5089852;28;20369;-61
2021/07/21 10:45:25;;;;;;;16.42;9.98;;;32.60;51.40;;;;;;5084716;28;20523;-60
2021/07/21 10:48:14;;;;;;;12.75;9.70;;;32.20;51.60;;;;;;5104738;28;20384;-58
2021/07/21 10:51:00;;;;;;;12.75;10.65;;;31.40;51.60;;;;;;5098269;28;20387;-61
2021/07/21 10:53:59;;;;;;;15.10;9.70;;;31.20;53.90;;;;;;5094333;28;20459;-60
2021/07/21 10:59:11;;;;;;;12.80;9.70;;;30.90;54.40;;;;;;5096742;28;20408;-59
2021/07/21 11:01:42;;;;;;;14.35;10.88;;;30.30;55.80;;;;;;5088861;28;20447;-62
2021/07/21 11:04:09;;;;;;;13.82;10.43;;;30.50;54.60;;;;;;5086234;28;20416;-62
2021/07/21 11:06:39;;;;;;;13.00;10.50;;;30.60;55.10;;;;;;5099539;28;21007;-62
2021/07/21 11:09:18;;;;;;;13.77;7.90;;;30.50;55.90;;;;;;5087233;28;20383;-65
2021/07/21 11:11:45;;;;;;;13.55;8.10;;;30.10;56.30;;;;;;5077769;28;20420;-65
2021/07/21 11:14:21;;;;;;;14.30;7.47;;;30.20;56.40;;;;;;5101465;28;20370;-63
2021/07/21 11:16:50;;;;;;;15.15;8.50;;;30.20;55.70;;;;;;5102279;28;20403;-66
2021/07/21 11:19:30;;;;;;;17.40;8.25;;;29.70;57.10;;;;;;5091873;28;20911;-65
2021/07/21 11:22:00;;;;;;;12.23;7.93;;;29.20;57.50;;;;;;5091719;28;20394;-64
2021/07/21 11:24:50;;;;;;;13.23;8.00;;;28.90;58.30;;;;;;5087875;28;20439;-64
2021/07/21 11:27:56;;;;;;;11.90;8.48;;;29.10;57.80;;;;;;5085550;28;20738;-65
2021/07/21 11:30:42;;;;;;;13.88;12.30;;;29.20;58.70;;;;;;5077740;28;20794;-65
2021/07/21 11:33:46;;;;;;;15.07;13.45;;;29.60;57.80;;;;;;5089016;28;20382;-66
2021/07/21 11:36:38;;;;;;;15.93;14.23;;;29.80;58.10;;;;;;5087342;28;20410;-62
2021/07/21 11:39:04;;;;;;;16.17;14.67;;;30.00;57.60;;;;;;5088694;28;20382;-65
2021/07/21 11:41:45;;;;;;;19.58;16.52;;;30.40;56.90;;;;;;5087251;28;20902;-63
2021/07/21 11:44:19;;;;;;;19.30;17.50;;;30.80;56.00;;;;;;5090666;28;20401;-62
2021/07/21 11:46:45;;;;;;;19.10;17.40;;;30.50;56.00;;;;;;5119548;27;20391;-64
2021/07/21 11:49:11;;;;;;;18.63;16.73;;;30.30;56.90;;;;;;5089412;28;20390;-62
2021/07/21 11:51:38;;;;;;;18.52;16.52;;;30.30;57.00;;;;;;5087953;28;20400;-64
2021/07/21 11:54:04;;;;;;;17.85;16.05;;;30.50;57.60;;;;;;5087590;28;20413;-63
2021/07/21 11:56:30;;;;;;;18.65;16.98;;;30.30;56.80;;;;;;5085345;28;20915;-64
2021/07/21 11:59:05;;;;;;;18.08;16.27;;;30.30;57.20;;;;;;5082125;28;20877;-63
2021/07/21 12:01:30;;;;;;;16.67;14.38;;;30.00;57.40;;;;;;5088033;28;21011;-64
2021/07/21 12:03:56;;;;;;;14.20;12.50;;;30.10;57.00;;;;;;5089287;28;20386;-63
2021/07/21 12:06:24;;;;;;;15.60;13.03;;;30.00;57.60;;;;;;5090144;28;20388;-63
2021/07/21 12:08:56;;;;;;;15.45;13.85;;;29.70;58.00;;;;;;5097927;28;20389;-63
2021/07/21 12:11:25;;;;;;;15.47;13.53;;;29.90;57.50;;;;;;5085244;28;20389;-62
2021/07/21 12:14:02;;;;;;;18.13;13.85;;;30.00;57.10;;;;;;5076177;28;20403;-57
2021/07/21 12:16:36;;;;;;;16.57;13.47;;;30.10;57.40;;;;;;5080841;28;20433;-57
2021/07/21 12:19:05;;;;;;;15.82;14.00;;;30.00;57.30;;;;;;5089358;28;20413;-56
2021/07/21 12:21:34;;;;;;;16.35;14.75;;;30.00;57.80;;;;;;5088393;28;21001;-57
2021/07/21 12:24:04;;;;;;;16.80;15.00;;;29.70;58.40;;;;;;5087784;28;20397;-56
2021/07/21 12:26:43;;;;;;;16.20;14.52;;;29.60;58.60;;;;;;5087174;28;20394;-56
2021/07/21 12:29:09;;;;;;;18.05;14.60;;;29.50;58.40;;;;;;5088739;28;20515;-59
2021/07/21 12:31:35;;;;;;;17.10;14.48;;;29.30;58.40;;;;;;5085909;28;20473;-59
2021/07/21 12:34:30;;;;;;;15.97;14.27;;;29.00;58.60;;;;;;5087606;28;20378;-57
2021/07/21 12:36:56;;;;;;;16.63;14.10;;;28.80;59.30;;;;;;5086377;28;20454;-59
2021/07/21 12:39:29;;;;;;;16.20;13.30;;;28.50;58.70;;;;;;5081957;28;20537;-58
2021/07/21 12:42:06;;;;;;;19.20;16.20;;;28.60;60.60;;;;;;5090931;28;20435;-58
2021/07/21 12:44:40;;;;;;;15.30;8.65;;;28.90;59.70;;;;;;5083222;28;20905;-60
2021/07/21 12:47:15;;;;;;;17.75;8.27;;;29.10;59.90;;;;;;5087546;28;20879;-63
2021/07/21 12:49:43;;;;;;;16.95;9.40;;;28.00;58.80;;;;;;5089935;28;20426;-63
2021/07/21 12:52:16;;;;;;;15.60;8.80;;;29.40;58.70;;;;;;5091975;28;20820;-61
2021/07/21 12:54:54;;;;;;;16.03;8.97;;;29.10;57.30;;;;;;5108137;28;20978;-62